Airfield :
LOGIN :

Register | Disclaimer

   EN    FR    IT 

 










Legend :    VFR   Marginal VFR   IFR   Intensive IFR   Very Intensive IFR
Visi :
Ceiling :
>= 8 km
>= 3000ft
5 to 8 km
1000 to 3000 ft
1500m to 5 km
500 to 1000 ft
800 to 1500m
200 to 500 ft
< 800m
< 200 ft
Symbols :   Thunderstorms  Fog  Heavy snow  Heavy precipitations  Wind > 20 kt
SIGMETs :     Misc.  Thunderstorms  Icing  Turbulence  Mountain Waves  Volcanic Ashes







- Airport Elevation : 21 ft
- IATA code : BJV


LTFE - Bodrum

CURRENT METAR :
  • 231820Z 09004KT 050V140 9999 FEW020CB SCT030 BKN090 11/08 Q1018 RETSRA TEMPO -TSRA

EXPIRED METARs :
  • 231815Z 07005KT 040V100 9999 FEW020CB SCT030 BKN090 11/08 Q1018 RETSRA TEMPO -TSRA RMK RWY10 09005KT 060V140
  • 231750Z 06008KT 8000 -TSRA FEW020CB SCT030 BKN080 10/08 Q1018 RESHRA BECMG TL1820 NSW TEMPO FM1830 -TSRA RMK RWY10 07008KT 050V110
  • 231734Z 07008KT 8000 -TSRA FEW020CB SCT030 BKN090 10/08 Q1018 RESHRA BECMG TL1820 NSW TEMPO FM1830 -TSRA
  • 231709Z 12008KT 8000 -SHRA FEW020CB SCT030 BKN090 11/08 Q1018 TEMPO FM1730 TSRA
  • 231650Z 12004KT 9999 SCT030 BKN090 10/08 Q1017 RESHRA NOSIG RMK RWY10 10004KT 080V140
  • 231620Z 09008KT 060V120 8000 -SHRA SCT030 BKN090 11/08 Q1017 NOSIG RMK RWY10 08008KT
  • 231559Z 10008KT 060V130 8000 -SHRA SCT030 BKN090 11/08 Q1017 NOSIG RMK RWY10 12006KT

TAF AMD TAF LTFE
Valid from the 23 at 18:00 until the 24 at 18:00 UTC


231710Z 2318/2418 VRB02KT 9999 -SHRA SCT030 BKN090
TEMPO 2318/2321 -TSRA FEW020CB BKN030
PROB40
TEMPO 2321/2324 -TSRA FEW020CB BKN030
No reported NOTAMs for that airfield.



MET'MAP, your aeronautical weather chart ! - Copyright ORBIFLY December 2007 - Disclaimer

ORBIFLY MET'MAP TEAM :

Programming & Development : Alexandra Zaïnal
Concept & Development : Baudouin d'Aumeries
Co-Development & Prog : Marc-Olivier Méhu
Technical & hardware support : Manuel Goepfert

Contact : metmap@orbifly.com




SOURCES & CREDITS :

   NOAA